sensor_id;sensor_type;location;lat;lon;timestamp;temperature;humidity
53748;DHT22;39655;53.210;5.768;2022-12-15T00:00:08;-3275.10;95.80
53748;DHT22;39655;53.210;5.768;2022-12-15T00:02:53;-3275.10;95.80
53748;DHT22;39655;53.210;5.768;2022-12-15T00:05:37;-3275.10;95.90
53748;DHT22;39655;53.210;5.768;2022-12-15T00:08:21;-3275.10;95.80
53748;DHT22;39655;53.210;5.768;2022-12-15T00:11:05;-3275.20;95.90
53748;DHT22;39655;53.210;5.768;2022-12-15T00:13:50;-3275.10;95.90
53748;DHT22;39655;53.210;5.768;2022-12-15T00:16:34;-3275.10;95.90
53748;DHT22;39655;53.210;5.768;2022-12-15T00:19:19;-3275.10;95.90
53748;DHT22;39655;53.210;5.768;2022-12-15T00:22:04;-3275.20;95.90
53748;DHT22;39655;53.210;5.768;2022-12-15T00:24:49;-3275.10;95.90
53748;DHT22;39655;53.210;5.768;2022-12-15T00:27:33;-3275.20;95.90
53748;DHT22;39655;53.210;5.768;2022-12-15T00:30:17;-3275.20;95.90
53748;DHT22;39655;53.210;5.768;2022-12-15T00:33:10;-3275.10;95.90
53748;DHT22;39655;53.210;5.768;2022-12-15T00:35:56;-3275.20;95.90
53748;DHT22;39655;53.210;5.768;2022-12-15T00:38:40;-3275.10;95.90
53748;DHT22;39655;53.210;5.768;2022-12-15T00:41:07;-3275.10;95.80
53748;DHT22;39655;53.210;5.768;2022-12-15T00:43:34;-3275.10;95.80
53748;DHT22;39655;53.210;5.768;2022-12-15T00:46:01;-3275.10;95.80
53748;DHT22;39655;53.210;5.768;2022-12-15T00:48:46;-3275.10;95.80
53748;DHT22;39655;53.210;5.768;2022-12-15T00:51:13;-3275.10;95.80
53748;DHT22;39655;53.210;5.768;2022-12-15T00:53:39;-3275.10;95.80
53748;DHT22;39655;53.210;5.768;2022-12-15T00:56:24;-3275.10;95.80
53748;DHT22;39655;53.210;5.768;2022-12-15T00:59:08;-3275.10;95.80
53748;DHT22;39655;53.210;5.768;2022-12-15T01:01:52;-3275.10;95.80
53748;DHT22;39655;53.210;5.768;2022-12-15T01:04:36;-3275.10;95.80
53748;DHT22;39655;53.210;5.768;2022-12-15T01:07:20;-3275.10;95.90
53748;DHT22;39655;53.210;5.768;2022-12-15T01:10:05;-3275.10;95.90
53748;DHT22;39655;53.210;5.768;2022-12-15T01:12:50;-3275.10;95.80
53748;DHT22;39655;53.210;5.768;2022-12-15T01:15:37;-3275.10;95.80
53748;DHT22;39655;53.210;5.768;2022-12-15T01:18:23;-3275.10;95.90
53748;DHT22;39655;53.210;5.768;2022-12-15T01:21:10;-3275.10;95.80
53748;DHT22;39655;53.210;5.768;2022-12-15T01:23:37;-3275.10;95.80
53748;DHT22;39655;53.210;5.768;2022-12-15T01:26:04;-3275.10;95.80
53748;DHT22;39655;53.210;5.768;2022-12-15T01:28:30;-3275.10;95.90
53748;DHT22;39655;53.210;5.768;2022-12-15T01:30:56;-3275.20;96.10
53748;DHT22;39655;53.210;5.768;2022-12-15T01:33:22;-3275.50;96.20
53748;DHT22;39655;53.210;5.768;2022-12-15T01:35:58;-3275.70;96.30
53748;DHT22;39655;53.210;5.768;2022-12-15T01:38:26;-3276.00;95.80
53748;DHT22;39655;53.210;5.768;2022-12-15T01:40:54;-3276.10;95.40
53748;DHT22;39655;53.210;5.768;2022-12-15T01:43:30;-3276.30;95.30
53748;DHT22;39655;53.210;5.768;2022-12-15T01:46:13;-3276.30;95.20
53748;DHT22;39655;53.210;5.768;2022-12-15T01:56:36;-3276.20;95.00
53748;DHT22;39655;53.210;5.768;2022-12-15T01:59:04;-3276.10;94.90
53748;DHT22;39655;53.210;5.768;2022-12-15T02:01:32;-3276.00;94.90
53748;DHT22;39655;53.210;5.768;2022-12-15T02:03:57;-3275.90;94.80
53748;DHT22;39655;53.210;5.768;2022-12-15T02:06:24;-3275.80;94.80
53748;DHT22;39655;53.210;5.768;2022-12-15T02:08:53;-3275.80;94.70
53748;DHT22;39655;53.210;5.768;2022-12-15T02:14:35;-3275.60;94.70
53748;DHT22;39655;53.210;5.768;2022-12-15T02:17:21;-3275.60;94.80
53748;DHT22;39655;53.210;5.768;2022-12-15T02:26:06;-3275.50;94.90
53748;DHT22;39655;53.210;5.768;2022-12-15T02:31:30;-3275.60;95.50
53748;DHT22;39655;53.210;5.768;2022-12-15T02:36:52;-3275.70;95.50
53748;DHT22;39655;53.210;5.768;2022-12-15T02:39:21;-3275.70;95.60
53748;DHT22;39655;53.210;5.768;2022-12-15T02:41:47;-3275.70;95.50
53748;DHT22;39655;53.210;5.768;2022-12-15T02:44:33;-3275.70;95.60
53748;DHT22;39655;53.210;5.768;2022-12-15T02:55:37;-3275.70;95.50
53748;DHT22;39655;53.210;5.768;2022-12-15T02:58:34;-3275.70;95.50
53748;DHT22;39655;53.210;5.768;2022-12-15T03:01:08;-3275.70;95.50
53748;DHT22;39655;53.210;5.768;2022-12-15T03:03:36;-3275.70;95.50
53748;DHT22;39655;53.210;5.768;2022-12-15T03:06:03;-3275.70;95.50
53748;DHT22;39655;53.210;5.768;2022-12-15T03:08:29;-3275.70;95.50
53748;DHT22;39655;53.210;5.768;2022-12-15T03:10:56;-3275.70;95.50
53748;DHT22;39655;53.210;5.768;2022-12-15T03:13:23;-3275.70;95.50
53748;DHT22;39655;53.210;5.768;2022-12-15T03:15:49;-3275.70;95.80
53748;DHT22;39655;53.210;5.768;2022-12-15T03:18:15;-3275.80;95.80
53748;DHT22;39655;53.210;5.768;2022-12-15T03:20:41;-3275.90;95.80
53748;DHT22;39655;53.210;5.768;2022-12-15T03:23:07;-3276.00;96.00
53748;DHT22;39655;53.210;5.768;2022-12-15T03:25:33;-3276.00;96.10
53748;DHT22;39655;53.210;5.768;2022-12-15T03:27:58;-3276.10;96.00
53748;DHT22;39655;53.210;5.768;2022-12-15T03:30:24;-3276.10;96.20
53748;DHT22;39655;53.210;5.768;2022-12-15T03:32:50;-3276.20;96.20
53748;DHT22;39655;53.210;5.768;2022-12-15T03:35:15;-3276.30;96.30
53748;DHT22;39655;53.210;5.768;2022-12-15T03:37:41;-3276.40;96.20
53748;DHT22;39655;53.210;5.768;2022-12-15T03:40:07;-3276.40;96.10
53748;DHT22;39655;53.210;5.768;2022-12-15T03:42:33;-3276.30;96.00
53748;DHT22;39655;53.210;5.768;2022-12-15T03:45:19;-3276.30;96.00
53748;DHT22;39655;53.210;5.768;2022-12-15T03:47:46;-3276.30;95.90
53748;DHT22;39655;53.210;5.768;2022-12-15T03:50:14;-3276.40;95.90
53748;DHT22;39655;53.210;5.768;2022-12-15T03:52:40;-3276.40;95.90
53748;DHT22;39655;53.210;5.768;2022-12-15T03:55:06;-3276.30;95.80
53748;DHT22;39655;53.210;5.768;2022-12-15T03:57:33;-3276.30;95.80
53748;DHT22;39655;53.210;5.768;2022-12-15T03:59:59;-3276.30;95.70
53748;DHT22;39655;53.210;5.768;2022-12-15T04:02:25;-3276.20;95.70
53748;DHT22;39655;53.210;5.768;2022-12-15T04:04:50;-3276.20;95.60
53748;DHT22;39655;53.210;5.768;2022-12-15T04:07:16;-3276.10;95.60
53748;DHT22;39655;53.210;5.768;2022-12-15T04:09:42;-3276.00;95.60
53748;DHT22;39655;53.210;5.768;2022-12-15T04:12:10;-3276.00;95.60
53748;DHT22;39655;53.210;5.768;2022-12-15T04:14:36;-3276.00;95.60
53748;DHT22;39655;53.210;5.768;2022-12-15T04:17:10;-3276.00;95.70
53748;DHT22;39655;53.210;5.768;2022-12-15T04:19:37;-3276.00;95.70
53748;DHT22;39655;53.210;5.768;2022-12-15T04:22:21;-3276.00;95.70
53748;DHT22;39655;53.210;5.768;2022-12-15T04:24:47;-3276.10;95.70
53748;DHT22;39655;53.210;5.768;2022-12-15T04:27:31;-3276.10;95.70
53748;DHT22;39655;53.210;5.768;2022-12-15T04:30:16;-3276.10;95.80
53748;DHT22;39655;53.210;5.768;2022-12-15T04:33:02;-3276.20;95.70
53748;DHT22;39655;53.210;5.768;2022-12-15T04:35:47;-3276.20;95.40
53748;DHT22;39655;53.210;5.768;2022-12-15T04:38:32;-3276.20;95.30
53748;DHT22;39655;53.210;5.768;2022-12-15T04:41:18;-3276.20;95.20
53748;DHT22;39655;53.210;5.768;2022-12-15T04:44:03;-3276.10;95.10
53748;DHT22;39655;53.210;5.768;2022-12-15T04:46:48;-3276.10;95.00
53748;DHT22;39655;53.210;5.768;2022-12-15T04:49:32;-3276.10;95.10
53748;DHT22;39655;53.210;5.768;2022-12-15T04:52:19;-3276.00;95.00
53748;DHT22;39655;53.210;5.768;2022-12-15T04:55:04;-3276.00;94.90
53748;DHT22;39655;53.210;5.768;2022-12-15T04:57:49;-3276.00;95.00
53748;DHT22;39655;53.210;5.768;2022-12-15T05:00:33;-3276.00;95.00
53748;DHT22;39655;53.210;5.768;2022-12-15T05:03:18;-3276.10;94.90
53748;DHT22;39655;53.210;5.768;2022-12-15T05:06:03;-3276.10;94.90
53748;DHT22;39655;53.210;5.768;2022-12-15T05:08:48;-3276.10;94.80
53748;DHT22;39655;53.210;5.768;2022-12-15T05:11:32;-3276.10;94.80
53748;DHT22;39655;53.210;5.768;2022-12-15T05:14:17;-3276.10;94.80
53748;DHT22;39655;53.210;5.768;2022-12-15T05:17:01;-3276.10;94.70
53748;DHT22;39655;53.210;5.768;2022-12-15T05:19:45;-3276.00;94.70
53748;DHT22;39655;53.210;5.768;2022-12-15T05:22:30;-3276.00;94.60
53748;DHT22;39655;53.210;5.768;2022-12-15T05:25:14;-3276.00;94.60
53748;DHT22;39655;53.210;5.768;2022-12-15T05:27:58;-3275.90;94.60
53748;DHT22;39655;53.210;5.768;2022-12-15T05:30:42;-3275.90;94.60
53748;DHT22;39655;53.210;5.768;2022-12-15T05:33:27;-3275.90;94.60
53748;DHT22;39655;53.210;5.768;2022-12-15T05:35:55;-3275.90;94.70
53748;DHT22;39655;53.210;5.768;2022-12-15T05:38:22;-3275.90;94.70
53748;DHT22;39655;53.210;5.768;2022-12-15T05:40:48;-3275.90;94.90
53748;DHT22;39655;53.210;5.768;2022-12-15T05:43:14;-3275.90;94.80
53748;DHT22;39655;53.210;5.768;2022-12-15T05:45:40;-3275.90;94.90
53748;DHT22;39655;53.210;5.768;2022-12-15T05:48:05;-3275.90;94.90
53748;DHT22;39655;53.210;5.768;2022-12-15T05:50:31;-3276.00;95.00
53748;DHT22;39655;53.210;5.768;2022-12-15T05:52:57;-3276.00;95.00
53748;DHT22;39655;53.210;5.768;2022-12-15T05:55:23;-3276.00;95.10
53748;DHT22;39655;53.210;5.768;2022-12-15T05:57:51;-3276.00;95.30
53748;DHT22;39655;53.210;5.768;2022-12-15T06:00:17;-3276.10;95.40
53748;DHT22;39655;53.210;5.768;2022-12-15T06:02:43;-3276.10;95.50
53748;DHT22;39655;53.210;5.768;2022-12-15T06:05:08;-3276.10;95.50
53748;DHT22;39655;53.210;5.768;2022-12-15T06:07:34;-3276.20;95.50
53748;DHT22;39655;53.210;5.768;2022-12-15T06:10:02;-3276.20;95.60
53748;DHT22;39655;53.210;5.768;2022-12-15T06:12:28;-3276.30;95.70
53748;DHT22;39655;53.210;5.768;2022-12-15T06:14:54;-3276.30;95.70
53748;DHT22;39655;53.210;5.768;2022-12-15T06:17:20;-3276.30;95.80
53748;DHT22;39655;53.210;5.768;2022-12-15T06:19:45;-3276.30;95.90
53748;DHT22;39655;53.210;5.768;2022-12-15T06:22:13;-3276.30;95.80
53748;DHT22;39655;53.210;5.768;2022-12-15T06:24:42;-3276.30;95.80
53748;DHT22;39655;53.210;5.768;2022-12-15T06:27:08;-3276.30;95.80
53748;DHT22;39655;53.210;5.768;2022-12-15T06:29:34;-3276.30;95.90
53748;DHT22;39655;53.210;5.768;2022-12-15T06:31:59;-3276.40;96.20
53748;DHT22;39655;53.210;5.768;2022-12-15T06:34:25;-3276.50;96.20
53748;DHT22;39655;53.210;5.768;2022-12-15T06:36:51;-3276.50;96.00
53748;DHT22;39655;53.210;5.768;2022-12-15T06:39:20;-3276.50;95.90
53748;DHT22;39655;53.210;5.768;2022-12-15T06:41:49;-3276.60;96.10
53748;DHT22;39655;53.210;5.768;2022-12-15T06:44:15;-3276.60;95.90
53748;DHT22;39655;53.210;5.768;2022-12-15T06:46:41;-3276.60;95.90
53748;DHT22;39655;53.210;5.768;2022-12-15T06:49:17;-3276.50;95.90
53748;DHT22;39655;53.210;5.768;2022-12-15T06:51:44;-3276.50;95.80
53748;DHT22;39655;53.210;5.768;2022-12-15T06:54:10;-3276.50;96.00
53748;DHT22;39655;53.210;5.768;2022-12-15T06:56:43;-3276.50;96.00
53748;DHT22;39655;53.210;5.768;2022-12-15T06:59:10;-3276.60;96.00
53748;DHT22;39655;53.210;5.768;2022-12-15T07:01:35;-3276.60;96.10
53748;DHT22;39655;53.210;5.768;2022-12-15T07:04:01;-3276.60;96.00
53748;DHT22;39655;53.210;5.768;2022-12-15T07:06:36;-3276.60;95.90
53748;DHT22;39655;53.210;5.768;2022-12-15T07:09:05;-3276.60;95.90
53748;DHT22;39655;53.210;5.768;2022-12-15T07:11:32;-3276.60;96.00
53748;DHT22;39655;53.210;5.768;2022-12-15T07:13:58;-3276.60;95.90
53748;DHT22;39655;53.210;5.768;2022-12-15T07:16:24;-3276.60;96.00
53748;DHT22;39655;53.210;5.768;2022-12-15T07:18:49;-3276.70;96.10
53748;DHT22;39655;53.210;5.768;2022-12-15T07:21:16;-3276.70;96.10
53748;DHT22;39655;53.210;5.768;2022-12-15T07:23:42;0.00;96.10
53748;DHT22;39655;53.210;5.768;2022-12-15T07:26:08;0.00;96.10
53748;DHT22;39655;53.210;5.768;2022-12-15T07:28:36;0.00;96.10
53748;DHT22;39655;53.210;5.768;2022-12-15T07:31:07;0.00;96.30
53748;DHT22;39655;53.210;5.768;2022-12-15T07:33:34;0.00;96.20
53748;DHT22;39655;53.210;5.768;2022-12-15T07:36:00;0.10;96.40
53748;DHT22;39655;53.210;5.768;2022-12-15T07:38:27;0.30;96.20
53748;DHT22;39655;53.210;5.768;2022-12-15T07:40:53;0.30;96.00
53748;DHT22;39655;53.210;5.768;2022-12-15T07:43:20;0.30;95.90
53748;DHT22;39655;53.210;5.768;2022-12-15T07:45:52;0.30;95.90
53748;DHT22;39655;53.210;5.768;2022-12-15T07:48:18;0.30;95.80
53748;DHT22;39655;53.210;5.768;2022-12-15T07:50:44;0.30;95.80
53748;DHT22;39655;53.210;5.768;2022-12-15T07:53:10;0.30;95.80
53748;DHT22;39655;53.210;5.768;2022-12-15T07:55:36;0.40;95.80
53748;DHT22;39655;53.210;5.768;2022-12-15T07:58:01;0.40;95.70
53748;DHT22;39655;53.210;5.768;2022-12-15T08:00:27;0.40;95.70
53748;DHT22;39655;53.210;5.768;2022-12-15T08:02:53;0.40;95.70
53748;DHT22;39655;53.210;5.768;2022-12-15T08:05:19;0.50;95.80
53748;DHT22;39655;53.210;5.768;2022-12-15T08:07:45;0.50;95.80
53748;DHT22;39655;53.210;5.768;2022-12-15T08:10:11;0.50;95.80
53748;DHT22;39655;53.210;5.768;2022-12-15T08:12:37;0.50;95.80
53748;DHT22;39655;53.210;5.768;2022-12-15T08:15:03;0.60;95.80
53748;DHT22;39655;53.210;5.768;2022-12-15T08:17:28;0.60;95.90
53748;DHT22;39655;53.210;5.768;2022-12-15T08:19:54;0.70;95.80
53748;DHT22;39655;53.210;5.768;2022-12-15T08:22:20;0.70;95.70
53748;DHT22;39655;53.210;5.768;2022-12-15T08:24:46;0.70;95.60
53748;DHT22;39655;53.210;5.768;2022-12-15T08:27:12;0.60;95.60
53748;DHT22;39655;53.210;5.768;2022-12-15T08:29:38;0.50;95.50
53748;DHT22;39655;53.210;5.768;2022-12-15T08:32:04;0.60;95.50
53748;DHT22;39655;53.210;5.768;2022-12-15T08:34:30;0.50;95.50
53748;DHT22;39655;53.210;5.768;2022-12-15T08:36:55;0.50;95.40
53748;DHT22;39655;53.210;5.768;2022-12-15T08:39:21;0.50;95.40
53748;DHT22;39655;53.210;5.768;2022-12-15T08:41:47;0.50;95.30
53748;DHT22;39655;53.210;5.768;2022-12-15T08:44:12;0.50;95.30
53748;DHT22;39655;53.210;5.768;2022-12-15T08:46:38;0.50;95.20
53748;DHT22;39655;53.210;5.768;2022-12-15T08:49:04;0.50;95.20
53748;DHT22;39655;53.210;5.768;2022-12-15T08:51:31;0.50;95.20
53748;DHT22;39655;53.210;5.768;2022-12-15T08:53:58;0.50;95.10
53748;DHT22;39655;53.210;5.768;2022-12-15T08:56:25;0.50;95.10
53748;DHT22;39655;53.210;5.768;2022-12-15T08:58:57;0.60;95.10
53748;DHT22;39655;53.210;5.768;2022-12-15T09:01:24;0.60;95.00
53748;DHT22;39655;53.210;5.768;2022-12-15T09:03:52;0.70;94.90
53748;DHT22;39655;53.210;5.768;2022-12-15T09:06:21;0.70;94.80
53748;DHT22;39655;53.210;5.768;2022-12-15T09:08:47;0.80;94.70
53748;DHT22;39655;53.210;5.768;2022-12-15T09:11:13;0.80;94.70
53748;DHT22;39655;53.210;5.768;2022-12-15T09:13:39;0.90;94.70
53748;DHT22;39655;53.210;5.768;2022-12-15T09:16:07;0.90;94.70
53748;DHT22;39655;53.210;5.768;2022-12-15T09:18:37;1.00;94.70
53748;DHT22;39655;53.210;5.768;2022-12-15T09:21:06;1.00;94.70
53748;DHT22;39655;53.210;5.768;2022-12-15T09:23:34;1.00;94.70
53748;DHT22;39655;53.210;5.768;2022-12-15T09:28:32;1.00;94.60
53748;DHT22;39655;53.210;5.768;2022-12-15T09:31:09;1.00;94.70
53748;DHT22;39655;53.210;5.768;2022-12-15T09:33:35;1.00;94.80
53748;DHT22;39655;53.210;5.768;2022-12-15T09:36:01;1.00;94.80
53748;DHT22;39655;53.210;5.768;2022-12-15T09:38:28;1.00;94.70
53748;DHT22;39655;53.210;5.768;2022-12-15T09:40:53;1.10;94.80
53748;DHT22;39655;53.210;5.768;2022-12-15T09:43:21;1.10;94.80
53748;DHT22;39655;53.210;5.768;2022-12-15T09:45:52;1.10;94.80
53748;DHT22;39655;53.210;5.768;2022-12-15T09:48:22;1.20;94.80
53748;DHT22;39655;53.210;5.768;2022-12-15T09:50:51;1.20;94.90
53748;DHT22;39655;53.210;5.768;2022-12-15T09:53:21;1.20;94.90
53748;DHT22;39655;53.210;5.768;2022-12-15T09:56:03;1.30;94.80
53748;DHT22;39655;53.210;5.768;2022-12-15T10:06:42;1.60;94.70
53748;DHT22;39655;53.210;5.768;2022-12-15T10:09:21;1.70;94.60
53748;DHT22;39655;53.210;5.768;2022-12-15T10:17:23;1.90;93.90
53748;DHT22;39655;53.210;5.768;2022-12-15T10:22:36;1.90;93.30
53748;DHT22;39655;53.210;5.768;2022-12-15T10:25:25;1.90;93.20
53748;DHT22;39655;53.210;5.768;2022-12-15T10:28:15;1.90;93.00
53748;DHT22;39655;53.210;5.768;2022-12-15T10:30:59;1.90;93.00
53748;DHT22;39655;53.210;5.768;2022-12-15T10:33:33;1.80;93.00
53748;DHT22;39655;53.210;5.768;2022-12-15T10:35:59;1.90;93.10
53748;DHT22;39655;53.210;5.768;2022-12-15T10:38:44;1.90;93.10
53748;DHT22;39655;53.210;5.768;2022-12-15T10:41:18;1.90;93.10
53748;DHT22;39655;53.210;5.768;2022-12-15T10:43:48;2.00;92.90
53748;DHT22;39655;53.210;5.768;2022-12-15T10:46:26;2.10;92.60
53748;DHT22;39655;53.210;5.768;2022-12-15T10:49:23;2.10;92.70
53748;DHT22;39655;53.210;5.768;2022-12-15T10:51:59;2.20;92.70
53748;DHT22;39655;53.210;5.768;2022-12-15T10:54:42;2.20;92.70
53748;DHT22;39655;53.210;5.768;2022-12-15T10:57:34;2.30;92.70
53748;DHT22;39655;53.210;5.768;2022-12-15T11:02:38;2.40;92.50
53748;DHT22;39655;53.210;5.768;2022-12-15T11:05:16;2.50;92.30
53748;DHT22;39655;53.210;5.768;2022-12-15T11:07:46;2.60;92.10
53748;DHT22;39655;53.210;5.768;2022-12-15T11:10:24;2.70;91.90
53748;DHT22;39655;53.210;5.768;2022-12-15T11:12:56;2.70;91.90
53748;DHT22;39655;53.210;5.768;2022-12-15T11:20:36;2.90;91.60
53748;DHT22;39655;53.210;5.768;2022-12-15T11:23:20;2.90;91.30
53748;DHT22;39655;53.210;5.768;2022-12-15T11:25:59;3.00;90.90
53748;DHT22;39655;53.210;5.768;2022-12-15T11:28:43;3.00;90.80
53748;DHT22;39655;53.210;5.768;2022-12-15T11:31:36;3.10;90.80
53748;DHT22;39655;53.210;5.768;2022-12-15T11:34:03;3.10;90.70
53748;DHT22;39655;53.210;5.768;2022-12-15T11:39:21;3.20;90.70
53748;DHT22;39655;53.210;5.768;2022-12-15T11:47:34;3.50;90.10
53748;DHT22;39655;53.210;5.768;2022-12-15T11:55:51;3.90;89.40
53748;DHT22;39655;53.210;5.768;2022-12-15T12:00:58;4.20;88.00
53748;DHT22;39655;53.210;5.768;2022-12-15T12:06:18;4.40;87.90
53748;DHT22;39655;53.210;5.768;2022-12-15T12:11:42;4.40;87.20
53748;DHT22;39655;53.210;5.768;2022-12-15T12:14:38;4.50;86.70
53748;DHT22;39655;53.210;5.768;2022-12-15T12:17:06;4.50;86.60
53748;DHT22;39655;53.210;5.768;2022-12-15T12:19:40;4.50;86.60
53748;DHT22;39655;53.210;5.768;2022-12-15T12:22:39;4.50;86.50
53748;DHT22;39655;53.210;5.768;2022-12-15T12:25:16;4.40;86.40
53748;DHT22;39655;53.210;5.768;2022-12-15T12:27:59;4.30;86.40
53748;DHT22;39655;53.210;5.768;2022-12-15T12:30:32;4.20;86.70
53748;DHT22;39655;53.210;5.768;2022-12-15T12:35:44;4.20;86.90
53748;DHT22;39655;53.210;5.768;2022-12-15T12:38:12;4.10;87.00
53748;DHT22;39655;53.210;5.768;2022-12-15T12:43:31;4.10;86.90
53748;DHT22;39655;53.210;5.768;2022-12-15T12:46:22;4.10;86.70
53748;DHT22;39655;53.210;5.768;2022-12-15T12:48:57;4.10;86.90
53748;DHT22;39655;53.210;5.768;2022-12-15T12:51:38;4.00;87.10
53748;DHT22;39655;53.210;5.768;2022-12-15T12:56:59;3.90;87.80
53748;DHT22;39655;53.210;5.768;2022-12-15T12:59:33;3.90;88.10
53748;DHT22;39655;53.210;5.768;2022-12-15T13:04:52;3.90;88.60
53748;DHT22;39655;53.210;5.768;2022-12-15T13:07:36;4.00;88.60
53748;DHT22;39655;53.210;5.768;2022-12-15T13:12:45;3.90;88.70
53748;DHT22;39655;53.210;5.768;2022-12-15T13:20:38;4.00;88.90
53748;DHT22;39655;53.210;5.768;2022-12-15T13:41:41;4.30;88.50
53748;DHT22;39655;53.210;5.768;2022-12-15T13:44:14;4.20;88.70
53748;DHT22;39655;53.210;5.768;2022-12-15T13:46:46;4.20;90.60
53748;DHT22;39655;53.210;5.768;2022-12-15T13:49:33;4.10;91.80
53748;DHT22;39655;53.210;5.768;2022-12-15T13:54:56;3.90;93.30
53748;DHT22;39655;53.210;5.768;2022-12-15T13:57:24;3.70;93.30
53748;DHT22;39655;53.210;5.768;2022-12-15T13:59:55;3.60;93.30
53748;DHT22;39655;53.210;5.768;2022-12-15T14:05:21;3.20;94.30
53748;DHT22;39655;53.210;5.768;2022-12-15T14:07:57;3.20;94.80
53748;DHT22;39655;53.210;5.768;2022-12-15T14:12:59;3.10;95.40
53748;DHT22;39655;53.210;5.768;2022-12-15T14:15:30;3.10;95.40
53748;DHT22;39655;53.210;5.768;2022-12-15T14:17:57;3.00;95.70
53748;DHT22;39655;53.210;5.768;2022-12-15T14:20:28;3.00;95.90
53748;DHT22;39655;53.210;5.768;2022-12-15T14:22:54;3.00;95.90
53748;DHT22;39655;53.210;5.768;2022-12-15T14:25:23;3.00;95.90
53748;DHT22;39655;53.210;5.768;2022-12-15T14:27:49;2.90;96.00
53748;DHT22;39655;53.210;5.768;2022-12-15T14:30:25;3.00;96.00
53748;DHT22;39655;53.210;5.768;2022-12-15T14:33:02;2.90;96.10
53748;DHT22;39655;53.210;5.768;2022-12-15T14:35:37;2.90;96.10
53748;DHT22;39655;53.210;5.768;2022-12-15T14:38:06;2.90;96.10
53748;DHT22;39655;53.210;5.768;2022-12-15T14:40:35;2.90;96.10
53748;DHT22;39655;53.210;5.768;2022-12-15T14:43:03;2.80;96.10
53748;DHT22;39655;53.210;5.768;2022-12-15T14:45:30;2.80;96.10
53748;DHT22;39655;53.210;5.768;2022-12-15T14:48:08;2.80;96.10
53748;DHT22;39655;53.210;5.768;2022-12-15T14:50:35;2.70;96.10
53748;DHT22;39655;53.210;5.768;2022-12-15T14:53:05;2.70;96.20
53748;DHT22;39655;53.210;5.768;2022-12-15T14:55:38;2.70;96.30
53748;DHT22;39655;53.210;5.768;2022-12-15T14:58:25;2.70;96.30
53748;DHT22;39655;53.210;5.768;2022-12-15T15:00:54;2.70;96.40
53748;DHT22;39655;53.210;5.768;2022-12-15T15:03:25;2.70;96.50
53748;DHT22;39655;53.210;5.768;2022-12-15T15:05:55;2.70;96.50
53748;DHT22;39655;53.210;5.768;2022-12-15T15:08:42;2.70;96.40
53748;DHT22;39655;53.210;5.768;2022-12-15T15:13:47;2.60;96.40
53748;DHT22;39655;53.210;5.768;2022-12-15T15:16:17;2.50;96.30
53748;DHT22;39655;53.210;5.768;2022-12-15T15:18:48;2.40;96.40
53748;DHT22;39655;53.210;5.768;2022-12-15T15:21:17;2.40;96.30
53748;DHT22;39655;53.210;5.768;2022-12-15T15:23:58;2.30;96.30
53748;DHT22;39655;53.210;5.768;2022-12-15T15:26:24;2.20;96.30
53748;DHT22;39655;53.210;5.768;2022-12-15T15:28:50;2.20;96.30
53748;DHT22;39655;53.210;5.768;2022-12-15T15:31:33;2.10;96.30
53748;DHT22;39655;53.210;5.768;2022-12-15T15:33:59;2.10;96.30
53748;DHT22;39655;53.210;5.768;2022-12-15T15:36:34;2.10;96.30
53748;DHT22;39655;53.210;5.768;2022-12-15T15:39:02;2.10;96.20
53748;DHT22;39655;53.210;5.768;2022-12-15T15:41:30;2.10;96.30
53748;DHT22;39655;53.210;5.768;2022-12-15T15:44:00;2.00;96.30
53748;DHT22;39655;53.210;5.768;2022-12-15T15:46:32;2.00;96.30
53748;DHT22;39655;53.210;5.768;2022-12-15T15:49:05;1.90;96.50
53748;DHT22;39655;53.210;5.768;2022-12-15T15:51:31;1.90;96.50
53748;DHT22;39655;53.210;5.768;2022-12-15T15:54:03;1.90;96.40
53748;DHT22;39655;53.210;5.768;2022-12-15T15:56:30;1.90;96.50
53748;DHT22;39655;53.210;5.768;2022-12-15T15:58:57;1.80;96.40
53748;DHT22;39655;53.210;5.768;2022-12-15T16:01:23;1.80;96.40
53748;DHT22;39655;53.210;5.768;2022-12-15T16:03:49;1.80;96.40
53748;DHT22;39655;53.210;5.768;2022-12-15T16:06:17;1.70;96.50
53748;DHT22;39655;53.210;5.768;2022-12-15T16:08:45;1.70;96.40
53748;DHT22;39655;53.210;5.768;2022-12-15T16:11:13;1.70;96.50
53748;DHT22;39655;53.210;5.768;2022-12-15T16:13:39;1.70;96.50
53748;DHT22;39655;53.210;5.768;2022-12-15T16:16:05;1.60;96.50
53748;DHT22;39655;53.210;5.768;2022-12-15T16:18:35;1.60;96.60
53748;DHT22;39655;53.210;5.768;2022-12-15T16:21:01;1.70;96.50
53748;DHT22;39655;53.210;5.768;2022-12-15T16:23:27;1.60;96.50
53748;DHT22;39655;53.210;5.768;2022-12-15T16:25:58;1.60;96.60
53748;DHT22;39655;53.210;5.768;2022-12-15T16:28:27;1.60;96.60
53748;DHT22;39655;53.210;5.768;2022-12-15T16:30:53;1.60;96.60
53748;DHT22;39655;53.210;5.768;2022-12-15T16:33:19;1.60;96.60
53748;DHT22;39655;53.210;5.768;2022-12-15T16:35:45;1.70;96.70
53748;DHT22;39655;53.210;5.768;2022-12-15T16:38:26;1.70;96.70
53748;DHT22;39655;53.210;5.768;2022-12-15T16:40:52;1.70;96.70
53748;DHT22;39655;53.210;5.768;2022-12-15T16:43:21;1.70;96.70
53748;DHT22;39655;53.210;5.768;2022-12-15T16:45:49;1.70;96.80
53748;DHT22;39655;53.210;5.768;2022-12-15T16:48:15;1.70;96.80
53748;DHT22;39655;53.210;5.768;2022-12-15T16:50:48;1.70;96.80
53748;DHT22;39655;53.210;5.768;2022-12-15T16:53:22;1.70;96.80
53748;DHT22;39655;53.210;5.768;2022-12-15T16:55:55;1.70;96.80
53748;DHT22;39655;53.210;5.768;2022-12-15T16:58:21;1.70;96.80
53748;DHT22;39655;53.210;5.768;2022-12-15T17:00:50;1.70;96.80
53748;DHT22;39655;53.210;5.768;2022-12-15T17:03:17;1.70;96.80
53748;DHT22;39655;53.210;5.768;2022-12-15T17:05:47;1.70;96.90
53748;DHT22;39655;53.210;5.768;2022-12-15T17:08:23;1.70;96.80
53748;DHT22;39655;53.210;5.768;2022-12-15T17:10:50;1.70;96.90
53748;DHT22;39655;53.210;5.768;2022-12-15T17:13:33;1.70;96.80
53748;DHT22;39655;53.210;5.768;2022-12-15T17:16:03;1.70;96.80
53748;DHT22;39655;53.210;5.768;2022-12-15T17:18:30;1.60;96.70
53748;DHT22;39655;53.210;5.768;2022-12-15T17:21:05;1.50;96.70
53748;DHT22;39655;53.210;5.768;2022-12-15T17:23:35;1.50;96.70
53748;DHT22;39655;53.210;5.768;2022-12-15T17:26:01;1.50;96.70
53748;DHT22;39655;53.210;5.768;2022-12-15T17:28:31;1.40;96.70
53748;DHT22;39655;53.210;5.768;2022-12-15T17:30:58;1.40;96.60
53748;DHT22;39655;53.210;5.768;2022-12-15T17:33:27;1.30;96.60
53748;DHT22;39655;53.210;5.768;2022-12-15T17:36:01;1.30;96.70
53748;DHT22;39655;53.210;5.768;2022-12-15T17:38:28;1.30;96.70
53748;DHT22;39655;53.210;5.768;2022-12-15T17:40:54;1.20;96.70
53748;DHT22;39655;53.210;5.768;2022-12-15T17:43:25;1.20;96.70
53748;DHT22;39655;53.210;5.768;2022-12-15T17:45:52;1.20;96.70
53748;DHT22;39655;53.210;5.768;2022-12-15T17:48:21;1.30;96.80
53748;DHT22;39655;53.210;5.768;2022-12-15T17:50:48;1.30;96.90
53748;DHT22;39655;53.210;5.768;2022-12-15T17:53:21;1.30;96.90
53748;DHT22;39655;53.210;5.768;2022-12-15T17:55:49;1.40;96.90
53748;DHT22;39655;53.210;5.768;2022-12-15T18:00:46;1.40;97.00